Time;durP1;ratioP1;P1;durP2;ratioP2;P2;SDS_P1;SDS_P2;PMS_P1;PMS_P2;Temp;Humidity;BMP_temperature;BMP_pressure;BME280_temperature;BME280_humidity;BME280_pressure;Samples;Min_cycle;Max_cycle;Signal;HPM_P1;HPM_P2
2021/08/06 00:00:00;;;;;;;6.88;2.78;;;18.70;79.90;;;;;;5032748;28;20021;-88
2021/08/06 00:02:26;;;;;;;5.00;2.60;;;18.40;79.80;;;;;;5032214;28;20133;-87
2021/08/06 00:04:52;;;;;;;6.57;2.72;;;17.90;79.60;;;;;;5032415;28;20021;-87
2021/08/06 00:07:20;;;;;;;4.15;2.20;;;18.10;80.00;;;;;;5032135;28;20037;-88
2021/08/06 00:09:46;;;;;;;4.43;2.20;;;18.10;82.60;;;;;;5032397;28;20017;-89
2021/08/06 00:12:12;;;;;;;4.85;2.25;;;19.10;80.80;;;;;;5016079;28;20036;-89
2021/08/06 00:14:37;;;;;;;5.50;2.28;;;18.50;80.00;;;;;;5032459;28;20040;-89
2021/08/06 00:17:04;;;;;;;5.70;2.17;;;18.50;79.70;;;;;;5034365;28;20447;-89
2021/08/06 00:19:30;;;;;;;6.53;2.33;;;19.00;80.90;;;;;;5020206;28;20033;-89
2021/08/06 00:21:55;;;;;;;6.88;2.75;;;18.90;80.40;;;;;;5036085;28;20052;-89
2021/08/06 00:24:22;;;;;;;5.97;2.50;;;18.90;80.00;;;;;;5036033;28;20124;-88
2021/08/06 00:26:47;;;;;;;6.55;3.00;;;19.20;80.20;;;;;;5035547;28;20466;-89
2021/08/06 00:29:13;;;;;;;7.68;3.30;;;19.60;80.40;;;;;;5019463;28;20030;-89
2021/08/06 00:31:39;;;;;;;6.63;2.60;;;18.70;80.30;;;;;;5035519;28;20026;-88
2021/08/06 00:34:05;;;;;;;5.95;2.90;;;19.00;80.90;;;;;;5019260;28;20037;-89
2021/08/06 00:36:31;;;;;;;6.95;3.03;;;17.20;80.00;;;;;;5035697;28;20068;-88
2021/08/06 00:38:57;;;;;;;6.93;3.17;;;19.10;81.60;;;;;;5035403;28;20028;-89
2021/08/06 00:41:22;;;;;;;8.30;3.08;;;19.10;81.60;;;;;;5019316;28;20021;-89
2021/08/06 00:43:48;;;;;;;6.72;3.25;;;18.00;81.90;;;;;;5035345;28;20028;-88
2021/08/06 00:46:16;;;;;;;7.35;3.17;;;18.50;80.60;;;;;;5034978;28;20477;-89
2021/08/06 00:48:43;;;;;;;7.70;3.20;;;19.10;81.50;;;;;;5018861;28;20044;-89
2021/08/06 00:51:09;;;;;;;8.13;3.22;;;18.90;81.00;;;;;;5035078;28;20028;-89
2021/08/06 00:53:39;;;;;;;8.52;3.00;;;18.40;80.60;;;;;;5018885;28;20393;-88
2021/08/06 00:56:05;;;;;;;6.47;3.20;;;18.60;80.60;;;;;;5034875;28;20116;-89
2021/08/06 00:58:31;;;;;;;6.30;2.78;;;18.80;80.70;;;;;;5002160;28;20543;-88
2021/08/06 01:00:57;;;;;;;7.65;3.25;;;18.40;80.90;;;;;;5034622;28;20124;-88
2021/08/06 01:03:46;;;;;;;8.05;3.28;;;18.90;82.00;;;;;;5018449;28;20029;-87
2021/08/06 01:06:21;;;;;;;9.40;3.28;;;19.00;81.20;;;;;;5021567;28;20045;-87
2021/08/06 01:08:53;;;;;;;7.13;3.30;;;19.20;81.10;;;;;;5034660;28;20112;-88
2021/08/06 01:11:23;;;;;;;7.15;3.00;;;18.60;81.20;;;;;;5034563;28;20025;-87
2021/08/06 01:13:54;;;;;;;7.43;3.30;;;19.00;81.20;;;;;;5035867;28;20033;-87
2021/08/06 01:16:29;;;;;;;9.18;3.72;;;19.50;82.00;;;;;;5034562;28;20025;-87
2021/08/06 01:19:24;;;;;;;8.27;3.35;;;18.00;81.20;;;;;;5034385;28;20076;-87
2021/08/06 01:22:00;;;;;;;10.07;2.65;;;17.90;80.60;;;;;;5027333;28;20041;-87
2021/08/06 01:24:32;;;;;;;6.32;2.95;;;18.00;81.50;;;;;;5034425;28;20033;-87
2021/08/06 01:26:59;;;;;;;6.25;3.00;;;18.40;81.20;;;;;;5034547;28;20056;-87
2021/08/06 01:29:25;;;;;;;6.00;2.70;;;18.00;81.30;;;;;;5034051;28;20053;-88
2021/08/06 01:31:53;;;;;;;5.60;2.40;;;18.10;81.50;;;;;;5034372;28;20486;-87
2021/08/06 01:34:19;;;;;;;6.30;2.75;;;17.80;82.70;;;;;;5034311;28;20041;-87
2021/08/06 01:36:45;;;;;;;6.10;2.78;;;17.90;81.30;;;;;;5018118;28;20478;-87
2021/08/06 01:39:10;;;;;;;7.80;2.80;;;19.20;82.60;;;;;;5018045;28;20057;-87
2021/08/06 01:42:10;;;;;;;6.60;2.70;;;17.90;81.30;;;;;;5034926;28;20022;-87
2021/08/06 01:44:53;;;;;;;5.88;2.70;;;17.90;80.60;;;;;;5035681;28;20056;-87
2021/08/06 01:47:38;;;;;;;7.65;2.67;;;19.00;81.60;;;;;;5047419;28;20017;-87
2021/08/06 01:50:09;;;;;;;7.97;3.13;;;19.20;81.90;;;;;;5058048;28;20045;-87
2021/08/06 01:52:54;;;;;;;5.70;2.53;;;17.90;81.10;;;;;;5054543;28;20033;-87
2021/08/06 01:55:20;;;;;;;6.70;2.70;;;18.50;81.30;;;;;;5040197;28;20022;-87
2021/08/06 01:57:48;;;;;;;6.93;3.15;;;19.10;81.70;;;;;;5018523;28;20029;-87
2021/08/06 02:00:15;;;;;;;8.02;3.33;;;17.30;80.50;;;;;;5035173;28;20056;-86
2021/08/06 02:02:41;;;;;;;9.00;3.03;;;17.70;80.70;;;;;;5033973;28;20057;-86
2021/08/06 02:05:09;;;;;;;9.32;3.47;;;18.70;81.50;;;;;;5018146;28;20029;-87
2021/08/06 02:07:40;;;;;;;12.00;3.10;;;17.60;80.90;;;;;;5034432;28;20056;-87
2021/08/06 02:10:06;;;;;;;6.28;2.90;;;18.20;81.30;;;;;;5033372;28;20029;-87
2021/08/06 02:12:33;;;;;;;8.18;3.00;;;17.60;81.60;;;;;;5033453;28;20033;-87
2021/08/06 02:14:58;;;;;;;7.38;3.03;;;18.20;82.10;;;;;;5034176;28;20025;-87
2021/08/06 02:17:25;;;;;;;6.97;3.03;;;18.60;82.30;;;;;;5017021;28;20026;-88
2021/08/06 02:19:51;;;;;;;6.13;2.75;;;17.20;81.70;;;;;;5033365;28;20026;-88
2021/08/06 02:22:17;;;;;;;6.43;2.80;;;16.90;82.00;;;;;;5033360;28;20462;-88
2021/08/06 02:24:44;;;;;;;8.43;3.33;;;18.00;82.70;;;;;;5034932;28;20392;-87
2021/08/06 02:27:15;;;;;;;7.50;3.22;;;18.20;81.80;;;;;;5033362;28;20048;-88
2021/08/06 02:29:43;;;;;;;8.85;3.28;;;18.90;82.70;;;;;;5034962;28;20029;-87
2021/08/06 02:32:09;;;;;;;8.52;3.10;;;17.90;81.80;;;;;;5034445;28;20014;-87
2021/08/06 02:34:35;;;;;;;7.00;2.97;;;17.40;81.60;;;;;;5034198;28;20030;-87
2021/08/06 02:37:01;;;;;;;6.30;2.67;;;18.60;83.00;;;;;;5033259;28;20087;-87
2021/08/06 02:39:28;;;;;;;7.75;3.08;;;17.90;82.40;;;;;;5033271;28;20029;-87
2021/08/06 02:41:58;;;;;;;6.35;2.53;;;17.90;82.00;;;;;;5033231;28;20018;-87
2021/08/06 02:44:28;;;;;;;6.13;2.83;;;17.40;81.60;;;;;;5034463;28;20107;-87
2021/08/06 02:46:54;;;;;;;6.88;3.13;;;18.10;84.10;;;;;;5033759;28;20025;-87
2021/08/06 02:49:19;;;;;;;6.72;2.78;;;18.80;82.70;;;;;;5033030;28;20448;-87
2021/08/06 02:51:45;;;;;;;7.07;2.90;;;17.70;82.60;;;;;;5033741;28;20128;-87
2021/08/06 02:54:11;;;;;;;7.25;3.33;;;18.10;82.30;;;;;;5034270;28;20485;-87
2021/08/06 02:56:37;;;;;;;6.47;3.08;;;18.00;82.10;;;;;;5032824;28;20026;-87
2021/08/06 02:59:03;;;;;;;6.63;2.97;;;17.30;82.10;;;;;;5033033;28;20060;-87
2021/08/06 03:01:29;;;;;;;7.18;3.00;;;18.10;82.10;;;;;;5033742;28;20506;-87
2021/08/06 03:03:55;;;;;;;7.40;2.88;;;17.10;81.90;;;;;;5034182;28;20037;-87
2021/08/06 03:06:21;;;;;;;6.13;2.80;;;18.30;82.40;;;;;;5016184;28;20034;-87
2021/08/06 03:08:47;;;;;;;6.85;2.80;;;17.80;82.00;;;;;;5032749;28;20112;-87
2021/08/06 03:11:13;;;;;;;6.72;2.80;;;16.60;82.30;;;;;;5016134;28;20049;-87
2021/08/06 03:13:38;;;;;;;7.25;2.90;;;18.30;83.50;;;;;;5033011;28;20036;-88
2021/08/06 03:16:04;;;;;;;7.45;2.90;;;17.70;82.30;;;;;;5016172;28;20029;-87
2021/08/06 03:18:30;;;;;;;5.63;2.47;;;16.90;82.40;;;;;;5032474;28;20025;-87
2021/08/06 03:20:56;;;;;;;6.40;2.53;;;17.90;82.80;;;;;;5015772;28;20033;-88
2021/08/06 03:23:22;;;;;;;6.05;2.88;;;17.50;82.50;;;;;;5016251;28;20129;-88
2021/08/06 03:25:48;;;;;;;9.02;3.05;;;17.80;83.10;;;;;;5032171;28;20029;-88
2021/08/06 03:28:13;;;;;;;6.63;2.65;;;17.20;82.30;;;;;;5016147;28;20026;-87
2021/08/06 03:30:40;;;;;;;6.68;2.42;;;17.70;83.30;;;;;;5016199;28;20048;-88
2021/08/06 03:33:06;;;;;;;6.13;2.65;;;17.80;84.20;;;;;;5015709;28;20036;-88
2021/08/06 03:35:32;;;;;;;12.18;3.10;;;17.90;84.20;;;;;;4996057;28;20034;-87
2021/08/06 03:37:57;;;;;;;7.32;2.88;;;18.00;85.00;;;;;;5029051;28;20113;-88
2021/08/06 03:40:24;;;;;;;6.32;2.60;;;17.70;86.90;;;;;;4996041;28;20058;-87
2021/08/06 03:42:49;;;;;;;6.43;2.83;;;17.80;88.90;;;;;;5028656;28;20025;-87
2021/08/06 03:45:15;;;;;;;7.10;2.90;;;17.00;90.00;;;;;;5012587;28;20030;-87
2021/08/06 03:47:40;;;;;;;8.20;3.28;;;18.00;90.30;;;;;;4996057;28;20100;-87
2021/08/06 03:50:07;;;;;;;8.02;3.13;;;18.40;91.00;;;;;;5029040;28;20048;-87
2021/08/06 03:52:34;;;;;;;8.40;2.97;;;16.80;90.70;;;;;;5031974;28;20030;-87
2021/08/06 03:55:00;;;;;;;8.00;3.20;;;16.80;91.20;;;;;;5000327;28;20054;-88
2021/08/06 03:57:26;;;;;;;8.50;2.75;;;18.30;91.60;;;;;;5016415;28;20541;-87
2021/08/06 03:59:51;;;;;;;5.70;2.45;;;17.90;91.60;;;;;;5032571;28;20037;-87
2021/08/06 04:02:26;;;;;;;5.32;2.58;;;17.10;92.00;;;;;;5032166;28;20045;-87
2021/08/06 04:04:52;;;;;;;;;;;17.00;91.90;;;;;;5016642;28;20088;-87
2021/08/06 04:07:19;;;;;;;5.80;2.30;;;17.10;92.40;;;;;;5016191;28;19917;-87
2021/08/06 04:09:45;;;;;;;5.88;2.50;;;17.80;92.80;;;;;;5015963;28;20067;-87
2021/08/06 04:12:11;;;;;;;5.43;2.65;;;18.30;92.60;;;;;;5019390;28;20029;-87
2021/08/06 04:14:36;;;;;;;6.60;2.60;;;17.40;91.40;;;;;;5035578;28;20056;-87
2021/08/06 04:17:02;;;;;;;6.78;3.10;;;18.20;92.40;;;;;;5019442;28;20036;-86
2021/08/06 04:19:29;;;;;;;4.28;2.10;;;17.30;91.50;;;;;;5035373;28;20048;-87
2021/08/06 04:21:54;;;;;;;4.22;2.25;;;17.70;91.20;;;;;;5019259;28;20042;-87
2021/08/06 04:24:23;;;;;;;4.93;2.50;;;18.00;91.00;;;;;;5035513;28;20034;-88
2021/08/06 04:26:49;;;;;;;4.05;2.10;;;18.40;91.20;;;;;;5035581;28;20075;-87
2021/08/06 04:29:15;;;;;;;5.05;2.20;;;18.60;92.10;;;;;;5018853;28;20482;-88
2021/08/06 04:31:41;;;;;;;4.63;2.35;;;17.30;91.40;;;;;;5018719;28;20113;-87
2021/08/06 04:34:06;;;;;;;3.78;1.95;;;18.50;90.90;;;;;;5035270;28;20099;-87
2021/08/06 04:36:32;;;;;;;4.28;2.22;;;17.90;90.90;;;;;;5035306;28;20068;-87
2021/08/06 04:38:58;;;;;;;5.25;2.17;;;17.60;91.10;;;;;;5035136;28;20112;-87
2021/08/06 04:41:23;;;;;;;8.38;4.50;;;17.80;90.90;;;;;;5035384;28;20028;-87
2021/08/06 04:43:52;;;;;;;4.93;2.22;;;17.90;90.80;;;;;;5034858;28;20466;-86
2021/08/06 04:46:18;;;;;;;5.80;2.65;;;17.80;92.00;;;;;;5034667;28;20026;-87
2021/08/06 04:48:43;;;;;;;5.85;2.58;;;17.80;91.40;;;;;;5035274;28;20025;-87
2021/08/06 04:51:09;;;;;;;5.57;2.78;;;18.20;91.00;;;;;;5035183;28;20061;-87
2021/08/06 04:53:35;;;;;;;6.57;2.80;;;19.00;91.20;;;;;;5018837;28;20042;-87
2021/08/06 04:56:01;;;;;;;6.72;2.67;;;17.00;91.60;;;;;;5018658;28;20191;-87
2021/08/06 04:58:27;;;;;;;6.68;2.60;;;17.30;90.20;;;;;;5018719;28;20529;-87
2021/08/06 05:00:53;;;;;;;5.07;2.40;;;18.40;90.50;;;;;;5017720;28;20128;-87
2021/08/06 05:03:20;;;;;;;6.28;2.50;;;18.20;92.70;;;;;;5033846;28;20033;-87
2021/08/06 05:05:45;;;;;;;6.30;2.53;;;18.80;90.40;;;;;;5035927;28;20057;-87
2021/08/06 05:08:11;;;;;;;4.97;2.38;;;17.50;90.50;;;;;;5018120;28;20563;-87
2021/08/06 05:10:36;;;;;;;3.67;2.10;;;17.90;90.70;;;;;;5018018;28;20041;-87
2021/08/06 05:13:02;;;;;;;3.38;2.00;;;19.00;90.60;;;;;;5018210;28;20041;-88
2021/08/06 05:30:53;;;;;;;3.17;1.88;;;18.30;90.90;;;;;;4805826;26;20066;-90
2021/08/06 05:33:23;;;;;;;3.47;1.73;;;19.00;91.60;;;;;;4960036;28;20039;-89
2021/08/06 05:35:49;;;;;;;3.38;1.80;;;19.20;91.80;;;;;;4960433;28;20027;-90
2021/08/06 05:38:16;;;;;;;3.85;1.90;;;18.80;92.10;;;;;;4960193;28;20070;-89
2021/08/06 05:40:44;;;;;;;5.85;1.88;;;19.40;91.40;;;;;;4960546;28;20026;-91
2021/08/06 05:43:10;;;;;;;3.17;1.70;;;19.90;90.60;;;;;;4965870;28;20383;-91
2021/08/06 05:45:36;;;;;;;3.60;1.80;;;18.80;90.50;;;;;;4960382;28;20026;-89
2021/08/06 05:48:07;;;;;;;2.25;1.67;;;19.20;90.90;;;;;;4944012;28;20031;-89
2021/08/06 05:50:40;;;;;;;2.40;1.80;;;18.80;91.30;;;;;;4960059;28;20462;-90
2021/08/06 05:53:06;;;;;;;3.13;1.80;;;19.40;91.50;;;;;;4960423;28;20066;-90
2021/08/06 05:55:32;;;;;;;2.35;1.70;;;19.20;91.90;;;;;;4959844;28;20069;-91
2021/08/06 05:57:57;;;;;;;2.70;1.80;;;20.60;93.10;;;;;;4959826;28;20050;-85
2021/08/06 06:00:23;;;;;;;4.15;1.67;;;20.40;92.90;;;;;;4942813;28;20038;-89
2021/08/06 06:02:49;;;;;;;2.90;1.70;;;20.10;93.90;;;;;;4959371;28;20027;-87
2021/08/06 06:05:14;;;;;;;2.22;1.60;;;19.80;94.90;;;;;;4947871;28;20495;-86
2021/08/06 06:07:48;;;;;;;2.50;1.60;;;20.60;95.30;;;;;;4981383;28;20019;-95
2021/08/06 06:10:19;;;;;;;2.58;1.60;;;20.50;95.90;;;;;;4969922;28;20037;-96
2021/08/06 06:12:44;;;;;;;2.72;1.80;;;20.60;93.20;;;;;;4947354;28;20470;-83
2021/08/06 06:15:10;;;;;;;3.13;1.70;;;21.40;92.40;;;;;;4966236;28;20033;-82
2021/08/06 06:17:36;;;;;;;2.15;1.60;;;20.60;91.80;;;;;;4973664;28;20019;-82
2021/08/06 06:20:04;;;;;;;3.10;1.90;;;20.70;90.40;;;;;;4975698;28;20356;-82
2021/08/06 06:22:30;;;;;;;2.13;1.58;;;20.80;90.20;;;;;;4987942;28;20109;-83
2021/08/06 06:24:55;;;;;;;3.25;1.70;;;21.70;91.90;;;;;;4977419;28;20069;-82
2021/08/06 06:27:24;;;;;;;3.28;2.10;;;21.60;92.70;;;;;;4977745;28;20053;-82
2021/08/06 06:29:49;;;;;;;3.90;1.90;;;20.70;88.40;;;;;;4994611;28;20048;-82
2021/08/06 06:32:15;;;;;;;1.88;1.60;;;22.00;86.50;;;;;;4994801;28;20026;-83
2021/08/06 06:34:41;;;;;;;3.90;1.65;;;21.20;87.50;;;;;;4993464;28;20061;-83
2021/08/06 06:37:07;;;;;;;2.67;1.60;;;21.30;89.60;;;;;;4981823;28;20048;-85
2021/08/06 06:39:33;;;;;;;4.35;1.90;;;22.00;91.10;;;;;;4979173;28;20046;-86
2021/08/06 06:41:58;;;;;;;2.33;1.65;;;21.70;90.40;;;;;;4982443;28;20054;-88
2021/08/06 06:44:27;;;;;;;2.65;1.77;;;21.70;89.40;;;;;;4983377;28;20028;-87
2021/08/06 06:46:52;;;;;;;4.88;1.73;;;22.60;90.80;;;;;;4982902;28;20030;-88
2021/08/06 06:49:18;;;;;;;4.05;1.80;;;21.70;88.90;;;;;;4996961;28;20034;-89
2021/08/06 06:51:44;;;;;;;4.43;1.95;;;22.40;87.90;;;;;;4993412;28;20033;-90
2021/08/06 06:54:13;;;;;;;2.47;1.80;;;22.50;90.50;;;;;;4960115;28;20038;-89
2021/08/06 06:56:38;;;;;;;3.30;1.90;;;22.10;90.90;;;;;;4974136;28;20384;-89
2021/08/06 06:59:04;;;;;;;2.15;1.70;;;22.40;92.40;;;;;;4974952;28;20085;-87
2021/08/06 07:01:30;;;;;;;3.47;1.80;;;22.50;90.40;;;;;;4943352;28;20038;-87
2021/08/06 07:03:57;;;;;;;2.40;1.65;;;22.70;90.70;;;;;;4957871;28;20086;-87
2021/08/06 07:06:24;;;;;;;2.17;1.60;;;22.50;89.00;;;;;;4957797;28;20083;-85
2021/08/06 07:08:49;;;;;;;3.40;1.77;;;22.30;90.10;;;;;;4981146;28;20507;-86
2021/08/06 07:11:15;;;;;;;3.90;1.80;;;23.20;90.10;;;;;;4961794;28;20063;-87
2021/08/06 07:13:43;;;;;;;5.88;1.70;;;21.90;77.00;;;;;;4938554;29;20047;-83
2021/08/06 07:16:09;;;;;;;3.63;1.90;;;21.90;77.50;;;;;;4955347;29;20075;-83
2021/08/06 07:18:34;;;;;;;3.70;1.60;;;21.90;77.80;;;;;;4937989;29;20035;-83
2021/08/06 07:21:01;;;;;;;2.05;1.67;;;22.20;78.00;;;;;;4954502;29;20079;-87
2021/08/06 07:23:30;;;;;;;3.45;2.00;;;21.90;77.60;;;;;;4968318;28;20452;-85
2021/08/06 07:25:56;;;;;;;3.47;1.85;;;21.90;78.00;;;;;;4974148;28;20023;-85
2021/08/06 07:28:22;;;;;;;5.22;1.70;;;21.90;78.00;;;;;;4974523;28;20037;-85
2021/08/06 07:30:48;;;;;;;3.97;1.70;;;22.00;78.10;;;;;;4973310;28;20133;-87
2021/08/06 07:33:13;;;;;;;3.45;1.60;;;22.10;77.70;;;;;;4989614;28;20554;-88
2021/08/06 07:35:42;;;;;;;3.78;1.75;;;22.10;77.30;;;;;;4974405;28;20027;-88
2021/08/06 07:38:08;;;;;;;2.00;1.58;;;22.10;77.60;;;;;;4957193;28;20034;-86
2021/08/06 07:40:34;;;;;;;4.57;1.67;;;22.10;78.00;;;;;;4957493;28;20073;-84
2021/08/06 07:43:00;;;;;;;4.50;1.50;;;22.10;77.60;;;;;;4973302;28;20089;-88
2021/08/06 07:45:26;;;;;;;2.95;1.80;;;22.20;77.70;;;;;;4957312;28;20039;-83
2021/08/06 07:47:51;;;;;;;2.85;1.75;;;22.40;78.00;;;;;;4957396;28;20027;-84
2021/08/06 07:50:17;;;;;;;3.10;1.88;;;22.50;78.60;;;;;;4957001;28;20062;-84
2021/08/06 07:52:43;;;;;;;3.05;1.80;;;22.40;78.60;;;;;;4974185;28;20031;-84
2021/08/06 07:55:12;;;;;;;3.13;1.60;;;22.70;78.00;;;;;;4957067;28;20031;-84
2021/08/06 07:57:39;;;;;;;2.17;1.33;;;22.80;76.20;;;;;;4974545;28;20031;-84
2021/08/06 08:00:05;;;;;;;5.80;2.05;;;22.70;73.70;;;;;;4974696;28;20471;-84
2021/08/06 08:02:32;;;;;;;1.63;1.42;;;22.40;73.40;;;;;;4956762;28;20109;-84
2021/08/06 08:04:57;;;;;;;2.85;1.70;;;22.20;73.90;;;;;;4956769;28;20027;-84
2021/08/06 08:07:23;;;;;;;4.82;1.80;;;22.00;72.90;;;;;;4974496;28;20029;-84
2021/08/06 08:09:49;;;;;;;5.05;2.15;;;21.80;73.20;;;;;;4957716;28;20031;-84
2021/08/06 08:12:17;;;;;;;4.85;2.03;;;21.60;73.40;;;;;;4937704;29;20078;-84
2021/08/06 08:14:44;;;;;;;6.47;2.00;;;21.50;74.00;;;;;;4938157;29;20039;-84
2021/08/06 08:17:12;;;;;;;4.55;2.13;;;21.40;74.90;;;;;;4954698;29;20058;-84
2021/08/06 08:19:38;;;;;;;4.50;2.08;;;21.10;75.40;;;;;;4937615;29;20031;-83
2021/08/06 08:22:04;;;;;;;4.55;2.05;;;21.00;76.20;;;;;;4937576;29;20074;-83
2021/08/06 08:24:29;;;;;;;3.65;2.00;;;21.10;76.50;;;;;;4921846;29;20082;-83
2021/08/06 08:26:55;;;;;;;5.40;1.90;;;20.10;75.50;;;;;;4937362;29;20129;-83
2021/08/06 08:29:21;;;;;;;5.40;1.98;;;20.80;76.80;;;;;;4954531;29;20058;-83
2021/08/06 08:31:46;;;;;;;4.30;2.35;;;20.90;77.10;;;;;;4954763;29;20387;-83
2021/08/06 08:34:12;;;;;;;4.07;2.05;;;20.70;77.30;;;;;;4954978;29;20038;-83
2021/08/06 08:36:37;;;;;;;2.63;1.90;;;20.60;77.80;;;;;;4950840;28;20396;-83
2021/08/06 08:39:04;;;;;;;5.20;2.22;;;20.70;78.30;;;;;;4975641;28;20039;-83
2021/08/06 08:41:31;;;;;;;3.80;1.88;;;20.90;78.80;;;;;;4976024;28;20067;-83
2021/08/06 08:43:57;;;;;;;3.58;2.00;;;21.50;79.20;;;;;;4977481;28;20058;-84
2021/08/06 08:46:31;;;;;;;3.67;2.00;;;21.60;78.60;;;;;;4960335;28;20122;-84
2021/08/06 08:49:00;;;;;;;3.67;2.10;;;21.60;78.60;;;;;;4977543;28;20023;-84
2021/08/06 08:51:27;;;;;;;2.53;1.75;;;21.90;78.90;;;;;;4959796;28;20030;-84
2021/08/06 08:53:54;;;;;;;4.57;1.90;;;22.40;78.80;;;;;;4976938;28;20035;-84
2021/08/06 08:56:20;;;;;;;3.33;2.10;;;22.70;78.10;;;;;;4959799;28;20034;-84
2021/08/06 08:58:48;;;;;;;3.38;1.73;;;23.30;78.00;;;;;;4975761;28;20023;-83
2021/08/06 09:01:20;;;;;;;3.42;2.20;;;23.60;77.90;;;;;;4976852;28;20033;-83
2021/08/06 09:03:48;;;;;;;5.60;2.13;;;24.20;77.00;;;;;;4959618;28;20514;-83
2021/08/06 09:06:15;;;;;;;5.30;2.10;;;24.70;77.40;;;;;;4975898;28;20055;-83
2021/08/06 09:08:41;;;;;;;5.03;2.10;;;25.10;75.80;;;;;;4952005;29;20019;-83
2021/08/06 09:11:27;;;;;;;3.72;2.15;;;24.80;74.00;;;;;;4940328;29;20019;-83
2021/08/06 09:13:52;;;;;;;2.33;1.70;;;25.00;73.40;;;;;;4957382;29;20066;-84
2021/08/06 09:16:18;;;;;;;2.92;1.90;;;24.90;73.30;;;;;;4940311;29;20432;-89
2021/08/06 09:18:47;;;;;;;3.30;1.80;;;24.90;73.40;;;;;;4940721;29;20389;-82
2021/08/06 09:21:15;;;;;;;1.92;1.60;;;24.70;73.60;;;;;;4940303;29;20502;-86
2021/08/06 09:23:44;;;;;;;3.20;1.75;;;25.10;73.50;;;;;;4978864;28;20018;-93
2021/08/06 09:26:43;;;;;;;3.47;1.90;;;25.10;74.40;;;;;;4995000;28;20057;-83
2021/08/06 09:29:31;;;;;;;2.80;1.77;;;25.60;74.30;;;;;;4978407;28;20487;-87
2021/08/06 09:32:00;;;;;;;3.15;2.00;;;25.80;73.20;;;;;;4996197;28;20034;-85
2021/08/06 09:34:36;;;;;;;3.67;1.98;;;26.00;72.40;;;;;;4995661;28;20497;-85
2021/08/06 09:37:15;;;;;;;3.38;1.90;;;26.10;71.40;;;;;;4978904;28;20030;-85
2021/08/06 09:39:48;;;;;;;3.28;1.95;;;26.10;72.00;;;;;;4959364;28;20026;-85
2021/08/06 09:42:20;;;;;;;3.58;1.70;;;25.90;69.80;;;;;;4975901;28;20054;-85
2021/08/06 09:44:57;;;;;;;4.57;1.90;;;25.80;71.30;;;;;;4956732;29;20031;-86
2021/08/06 09:47:24;;;;;;;3.80;1.73;;;26.10;73.10;;;;;;4961304;28;20019;-89
2021/08/06 09:49:56;;;;;;;3.75;1.80;;;26.10;72.10;;;;;;4959738;28;20036;-86
2021/08/06 09:52:35;;;;;;;4.30;1.75;;;26.50;71.10;;;;;;4975940;28;20109;-86
2021/08/06 09:55:02;;;;;;;3.45;1.67;;;26.20;69.50;;;;;;4958794;28;20062;-85
2021/08/06 09:57:28;;;;;;;5.43;1.90;;;25.80;69.50;;;;;;4959216;28;20494;-85
2021/08/06 09:59:56;;;;;;;2.47;1.80;;;25.50;69.80;;;;;;4975075;28;20027;-86
2021/08/06 10:02:26;;;;;;;2.40;2.20;;;25.10;70.20;;;;;;4958685;28;20025;-85
2021/08/06 10:05:03;;;;;;;4.65;2.00;;;24.80;70.00;;;;;;4970001;28;20035;-84
2021/08/06 10:07:36;;;;;;;4.70;2.00;;;24.50;71.60;;;;;;4976298;28;20089;-88
2021/08/06 10:10:17;;;;;;;4.47;2.08;;;24.50;72.70;;;;;;4939935;29;20027;-88
2021/08/06 10:12:44;;;;;;;4.60;1.90;;;24.60;72.50;;;;;;4939785;29;20444;-88
2021/08/06 10:15:11;;;;;;;5.25;2.20;;;24.50;72.60;;;;;;4964884;28;20483;-87
2021/08/06 10:17:41;;;;;;;5.13;1.90;;;24.40;72.50;;;;;;4958462;28;20039;-87
2021/08/06 10:20:11;;;;;;;4.55;2.10;;;25.20;73.70;;;;;;4958527;28;20085;-86
2021/08/06 10:22:40;;;;;;;3.00;1.65;;;24.00;73.20;;;;;;4958596;28;20039;-86
2021/08/06 10:25:11;;;;;;;2.97;1.63;;;23.80;72.30;;;;;;4975598;28;20030;-88
2021/08/06 10:27:42;;;;;;;3.72;2.00;;;23.40;69.80;;;;;;4958743;28;20037;-85
2021/08/06 10:30:26;;;;;;;4.63;1.98;;;22.80;69.50;;;;;;4958251;28;20047;-85
2021/08/06 10:33:23;;;;;;;3.65;2.00;;;22.30;71.70;;;;;;4957594;28;20093;-86
2021/08/06 10:36:05;;;;;;;3.45;1.95;;;22.20;75.10;;;;;;4951087;28;20030;-86
2021/08/06 10:38:44;;;;;;;1.85;1.13;;;22.30;77.90;;;;;;4958132;28;20029;-86
2021/08/06 10:41:20;;;;;;;4.15;2.00;;;22.50;79.20;;;;;;4958144;28;20033;-86
2021/08/06 10:43:56;;;;;;;5.32;2.03;;;22.80;80.40;;;;;;4958415;28;20022;-84
2021/08/06 10:46:22;;;;;;;6.20;2.10;;;23.20;82.20;;;;;;4990042;28;20038;-84
2021/08/06 10:49:09;;;;;;;4.78;2.10;;;23.70;83.60;;;;;;4969801;28;20031;-85
2021/08/06 10:51:35;;;;;;;2.05;1.50;;;24.10;81.40;;;;;;4975183;28;20375;-85
2021/08/06 10:54:03;;;;;;;4.97;1.98;;;24.30;80.80;;;;;;4973785;28;20031;-85
2021/08/06 10:56:31;;;;;;;7.35;2.03;;;24.40;80.40;;;;;;4976046;28;20023;-85
2021/08/06 10:59:00;;;;;;;2.92;1.30;;;24.20;79.30;;;;;;4938627;29;20031;-85
2021/08/06 11:01:30;;;;;;;3.15;1.63;;;24.30;80.00;;;;;;4954006;28;20034;-85
2021/08/06 11:03:57;;;;;;;2.65;1.65;;;24.10;82.00;;;;;;4972015;28;20027;-85
2021/08/06 11:06:32;;;;;;;3.03;1.60;;;24.00;82.00;;;;;;4973772;28;20118;-86
2021/08/06 11:08:58;;;;;;;3.35;1.63;;;23.70;83.30;;;;;;4986805;28;20023;-85
2021/08/06 11:11:53;;;;;;;3.78;1.70;;;25.20;80.50;;;;;;4954613;29;20028;-85
2021/08/06 11:14:28;;;;;;;5.30;2.22;;;24.00;79.20;;;;;;4954869;29;20042;-85
2021/08/06 11:17:13;;;;;;;5.80;2.30;;;24.00;80.30;;;;;;5002542;28;20061;-85
2021/08/06 11:20:10;;;;;;;2.35;1.60;;;24.10;81.30;;;;;;4986756;28;20023;-88
2021/08/06 11:22:45;;;;;;;4.15;1.90;;;24.20;79.70;;;;;;4927536;29;20042;-86
2021/08/06 11:25:15;;;;;;;1.95;1.30;;;24.10;80.40;;;;;;4938430;29;20030;-85
2021/08/06 11:27:53;;;;;;;3.08;1.65;;;24.10;80.90;;;;;;4955552;29;20086;-85
2021/08/06 11:30:23;;;;;;;3.15;1.38;;;24.30;80.90;;;;;;4923209;29;20104;-85
2021/08/06 11:32:57;;;;;;;4.35;1.90;;;26.10;82.40;;;;;;4915680;29;20039;-85
2021/08/06 11:35:28;;;;;;;3.25;1.85;;;24.70;81.60;;;;;;4921151;29;20031;-86
2021/08/06 11:38:02;;;;;;;6.15;2.10;;;25.50;81.80;;;;;;4939105;29;20031;-85
2021/08/06 11:40:34;;;;;;;3.75;1.90;;;25.50;80.70;;;;;;4951710;29;20143;-86
2021/08/06 11:43:15;;;;;;;4.68;1.90;;;25.90;81.50;;;;;;4952594;29;20082;-87
2021/08/06 11:45:43;;;;;;;3.45;2.00;;;26.20;80.40;;;;;;4935270;29;20167;-86
2021/08/06 11:48:11;;;;;;;2.53;1.70;;;27.00;80.90;;;;;;4934823;29;20114;-86
2021/08/06 11:50:53;;;;;;;2.83;1.80;;;26.50;82.30;;;;;;4935352;29;20035;-86
2021/08/06 11:53:23;;;;;;;3.42;1.70;;;26.70;80.30;;;;;;4934908;29;20090;-87
2021/08/06 11:55:50;;;;;;;4.90;1.90;;;26.80;80.30;;;;;;4934670;29;20067;-86
2021/08/06 11:58:33;;;;;;;4.00;1.90;;;26.90;80.30;;;;;;4935524;29;20028;-87
2021/08/06 12:00:59;;;;;;;2.13;1.33;;;27.00;80.00;;;;;;4934936;29;20167;-87
2021/08/06 12:03:25;;;;;;;2.75;1.80;;;27.10;80.90;;;;;;4936345;29;20110;-86
2021/08/06 12:05:59;;;;;;;2.53;1.70;;;27.60;80.50;;;;;;4934696;29;20380;-86
2021/08/06 12:08:25;;;;;;;3.67;2.10;;;26.70;80.60;;;;;;4930373;29;20073;-91
2021/08/06 12:10:56;;;;;;;3.58;1.92;;;26.40;81.40;;;;;;4916109;29;20492;-86
2021/08/06 12:13:24;;;;;;;2.67;1.70;;;25.80;80.70;;;;;;4917951;29;20044;-86
2021/08/06 12:16:11;;;;;;;5.18;1.83;;;27.60;83.50;;;;;;4903726;29;20112;-87
2021/08/06 12:18:44;;;;;;;2.92;1.50;;;26.30;83.60;;;;;;4938812;29;20023;-86
2021/08/06 12:21:20;;;;;;;4.43;1.75;;;26.70;83.90;;;;;;4957624;29;20122;-86
2021/08/06 12:23:50;;;;;;;1.90;1.50;;;27.20;84.40;;;;;;4958008;29;20472;-86
2021/08/06 12:26:15;;;;;;;2.15;1.52;;;27.70;83.30;;;;;;4943048;29;20369;-86
2021/08/06 12:28:44;;;;;;;3.60;1.70;;;27.90;83.10;;;;;;4973529;28;20023;-86
2021/08/06 12:31:14;;;;;;;2.58;1.50;;;28.40;84.60;;;;;;4940864;28;20052;-85
2021/08/06 12:33:41;;;;;;;1.92;1.63;;;28.80;84.60;;;;;;4949711;29;20035;-85
2021/08/06 12:36:12;;;;;;;3.58;1.50;;;29.70;84.00;;;;;;4947930;29;20020;-85
2021/08/06 12:38:39;;;;;;;1.85;1.00;;;30.00;80.90;;;;;;4954381;28;20036;-90
2021/08/06 12:41:07;;;;;;;1.10;1.10;;;29.30;75.90;;;;;;4958986;29;20051;-79
2021/08/06 12:43:35;;;;;;;6.32;1.77;;;28.50;77.10;;;;;;4941524;29;20116;-85
2021/08/06 12:46:13;;;;;;;2.78;1.80;;;27.80;78.60;;;;;;4939267;29;20039;-86
2021/08/06 12:49:01;;;;;;;2.42;1.48;;;27.20;80.20;;;;;;4928550;29;20032;-86
2021/08/06 12:51:27;;;;;;;3.80;1.65;;;26.90;81.60;;;;;;4920685;29;20063;-86
2021/08/06 12:54:03;;;;;;;3.78;1.50;;;26.60;85.40;;;;;;4904318;29;20059;-87
2021/08/06 12:56:53;;;;;;;12.32;6.88;;;27.40;86.20;;;;;;4919974;29;20051;-86
2021/08/06 12:59:21;;;;;;;2.50;1.63;;;26.60;84.80;;;;;;4921008;29;20024;-86
2021/08/06 13:01:47;;;;;;;3.50;1.60;;;27.30;85.10;;;;;;4920469;29;20059;-87
2021/08/06 13:04:17;;;;;;;5.28;3.30;;;28.70;90.70;;;;;;4919739;29;20028;-86
2021/08/06 13:06:47;;;;;;;2.13;1.60;;;30.60;92.70;;;;;;4921495;29;20028;-85
2021/08/06 13:09:36;;;;;;;2.97;1.45;;;33.20;93.10;;;;;;4930399;29;20078;-85
2021/08/06 13:12:09;;;;;;;1.50;1.40;;;36.50;82.00;;;;;;4938097;29;20106;-87